createdAt,value
2022-11-16T00:01:42.464Z,96723.72
2022-11-16T00:04:12.165Z,96729.31
2022-11-16T00:06:40.259Z,96730.50
2022-11-16T00:09:23.073Z,96730.50
2022-11-16T00:11:52.241Z,96735.59
2022-11-16T00:14:21.212Z,96736.47
2022-11-16T00:16:48.661Z,96741.59
2022-11-16T00:19:16.023Z,96749.41
2022-11-16T00:21:43.495Z,96754.69
2022-11-16T00:24:16.022Z,96756.41
2022-11-16T00:26:44.340Z,96754.09
2022-11-16T00:29:18.398Z,96764.63
2022-11-16T00:31:46.969Z,96763.66
2022-11-16T00:34:14.679Z,96771.69
2022-11-16T00:36:42.456Z,96756.03
2022-11-16T00:39:14.824Z,96758.16
2022-11-16T00:41:43.192Z,96764.50
2022-11-16T00:44:11.507Z,96760.91
2022-11-16T00:46:39.636Z,96756.34
2022-11-16T00:49:07.637Z,96763.38
2022-11-16T00:51:35.834Z,96766.31
2022-11-16T00:54:04.928Z,96761.88
2022-11-16T00:56:36.757Z,96767.75
2022-11-16T00:59:05.812Z,96768.34
2022-11-16T01:01:33.755Z,96769.94
2022-11-16T01:04:01.275Z,96770.78
2022-11-16T01:06:28.743Z,96773.56
2022-11-16T01:08:56.183Z,96764.16
2022-11-16T01:11:43.030Z,96771.91
2022-11-16T01:14:11.124Z,96775.59
2022-11-16T01:16:38.633Z,96772.09
2022-11-16T01:19:06.569Z,96773.75
2022-11-16T01:21:34.829Z,96780.09
2022-11-16T01:24:02.472Z,96785.75
2022-11-16T01:26:30.104Z,96775.59
2022-11-16T01:28:58.944Z,96781.94
2022-11-16T01:31:29.620Z,96786.72
2022-11-16T01:33:58.379Z,96783.91
2022-11-16T01:36:29.383Z,96797.34
2022-11-16T01:38:59.424Z,96799.78
2022-11-16T01:41:30.832Z,96795.09
2022-11-16T01:44:07.466Z,96802.72
2022-11-16T01:46:40.899Z,96803.31
2022-11-16T01:49:17.330Z,96805.13
2022-11-16T01:51:56.073Z,96803.31
2022-11-16T01:54:25.957Z,96811.47
2022-11-16T01:57:01.013Z,96813.34
2022-11-16T01:59:41.801Z,96819.38
2022-11-16T02:02:16.252Z,96807.28
2022-11-16T02:04:46.105Z,96819.19
2022-11-16T02:08:16.002Z,96827.84
2022-11-16T02:10:59.529Z,96836.56
2022-11-16T02:13:34.880Z,96836.81
2022-11-16T02:16:30.413Z,96832.34
2022-11-16T02:19:29.568Z,96835.75
2022-11-16T02:22:24.524Z,96836.81
2022-11-16T02:25:01.095Z,96841.84
2022-11-16T02:27:48.013Z,96837.63
2022-11-16T02:30:18.410Z,96846.00
2022-11-16T02:32:52.275Z,96849.44
2022-11-16T02:35:25.651Z,96856.25
2022-11-16T02:38:10.774Z,96859.19
2022-11-16T02:40:43.347Z,96866.59
2022-11-16T02:43:15.803Z,96867.38
2022-11-16T02:45:47.510Z,96866.38
2022-11-16T02:48:25.298Z,96870.00
2022-11-16T02:50:54.271Z,96871.06
2022-11-16T02:53:22.802Z,96874.22
2022-11-16T02:55:51.130Z,96867.38
2022-11-16T02:58:22.017Z,96883.97
2022-11-16T03:01:08.851Z,96856.88
2022-11-16T03:03:51.137Z,96886.81
2022-11-16T03:06:26.854Z,96897.63
2022-11-16T03:09:11.462Z,96888.66
2022-11-16T03:12:00.508Z,96895.75
2022-11-16T03:14:33.718Z,96900.47
2022-11-16T03:17:04.054Z,96892.34
2022-11-16T03:20:03.002Z,96887.84
2022-11-16T03:22:44.905Z,96885.81
2022-11-16T03:25:18.362Z,96896.56
2022-11-16T03:28:16.061Z,96897.56
2022-11-16T03:30:52.850Z,96901.72
2022-11-16T03:33:26.324Z,96907.50
2022-11-16T03:36:04.148Z,96911.50
2022-11-16T03:38:36.959Z,96913.38
2022-11-16T03:41:09.064Z,96908.69
2022-11-16T03:43:39.268Z,96919.41
2022-11-16T03:46:07.941Z,96921.63
2022-11-16T03:48:37.139Z,96925.72
2022-11-16T03:51:26.382Z,96913.59
2022-11-16T03:53:55.233Z,96936.56
2022-11-16T03:56:23.047Z,96949.72
2022-11-16T03:58:50.676Z,96950.81
2022-11-16T04:01:18.911Z,96956.34
2022-11-16T04:03:48.279Z,96951.88
2022-11-16T04:06:36.212Z,96961.91
2022-11-16T04:09:24.065Z,96965.63
2022-11-16T04:12:09.953Z,96960.06
2022-11-16T04:14:58.626Z,96962.72
2022-11-16T04:17:49.939Z,96957.44
2022-11-16T04:20:35.668Z,96956.72
2022-11-16T04:23:33.595Z,96966.69
2022-11-16T04:26:03.321Z,96951.03
2022-11-16T04:28:34.732Z,96964.34
2022-11-16T04:31:23.882Z,96971.97
2022-11-16T04:34:27.873Z,96984.84
2022-11-16T04:37:17.004Z,96975.00
2022-11-16T04:39:44.424Z,96982.84
2022-11-16T04:42:22.439Z,96995.94
2022-11-16T04:45:10.610Z,96982.00
2022-11-16T04:47:51.719Z,96982.13
2022-11-16T04:50:22.216Z,96978.53
2022-11-16T04:52:51.641Z,96992.22
2022-11-16T04:55:19.193Z,96998.19
2022-11-16T04:57:50.391Z,96987.66
2022-11-16T05:00:18.309Z,97007.81
2022-11-16T05:02:45.987Z,96992.75
2022-11-16T05:05:14.029Z,97006.63
2022-11-16T05:07:44.034Z,97010.47
2022-11-16T05:10:18.265Z,97008.38
2022-11-16T05:12:46.210Z,97001.84
2022-11-16T05:15:14.385Z,97005.78
2022-11-16T05:17:42.086Z,97006.56
2022-11-16T05:20:33.705Z,97008.91
2022-11-16T05:23:04.274Z,97013.09
2022-11-16T05:25:36.952Z,97013.63
2022-11-16T05:28:08.071Z,97025.22
2022-11-16T05:30:40.204Z,97020.16
2022-11-16T05:33:08.266Z,97030.00
2022-11-16T05:35:39.988Z,97032.50
2022-11-16T05:38:08.612Z,97025.94
2022-11-16T05:40:41.397Z,97036.47
2022-11-16T05:43:08.838Z,97036.56
2022-11-16T05:45:43.307Z,97036.75
2022-11-16T05:48:11.587Z,97041.25
2022-11-16T05:50:42.968Z,97037.53
2022-11-16T05:53:20.976Z,97049.50
2022-11-16T05:55:49.320Z,97050.13
2022-11-16T05:58:18.511Z,97047.59
2022-11-16T06:00:49.301Z,97051.66
2022-11-16T06:03:17.882Z,97067.28
2022-11-16T06:05:45.344Z,97064.47
2022-11-16T06:08:14.959Z,97059.03
2022-11-16T06:10:42.932Z,97059.81
2022-11-16T06:13:10.282Z,97067.81
2022-11-16T06:15:40.865Z,97069.19
2022-11-16T06:18:09.964Z,97070.28
2022-11-16T06:20:39.249Z,97072.16
2022-11-16T06:23:07.551Z,97080.28
2022-11-16T06:25:39.661Z,97076.56
2022-11-16T06:28:08.367Z,97087.78
2022-11-16T06:30:38.592Z,97091.69
2022-11-16T06:33:07.428Z,97101.84
2022-11-16T06:35:34.968Z,97101.38
2022-11-16T06:38:04.397Z,97093.09
2022-11-16T06:40:33.007Z,97096.53
2022-11-16T06:43:02.005Z,97100.56
2022-11-16T06:45:29.710Z,97102.59
2022-11-16T06:48:00.203Z,97104.03
2022-11-16T06:50:27.813Z,97109.66
2022-11-16T06:52:55.752Z,97112.59
2022-11-16T06:55:24.029Z,97119.00
2022-11-16T06:57:52.815Z,97114.31
2022-11-16T07:00:20.990Z,97117.59
2022-11-16T07:02:50.335Z,97122.25
2022-11-16T07:05:19.598Z,97115.25
2022-11-16T07:07:48.238Z,97106.78
2022-11-16T07:10:16.687Z,97110.25
2022-11-16T07:12:44.422Z,97101.66
2022-11-16T07:15:14.034Z,97081.66
2022-11-16T07:17:44.395Z,97110.69
2022-11-16T07:20:14.514Z,97104.63
2022-11-16T07:22:42.252Z,97108.53
2022-11-16T07:25:13.363Z,97105.41
2022-11-16T07:27:41.252Z,97100.25
2022-11-16T07:30:09.516Z,97110.56
2022-11-16T07:33:06.158Z,97109.44
2022-11-16T07:36:02.441Z,97109.91
2022-11-16T07:38:31.595Z,97116.47
2022-11-16T07:41:06.849Z,97123.63
2022-11-16T07:43:38.063Z,97118.78
2022-11-16T07:49:11.189Z,97118.72
2022-11-16T07:51:54.440Z,97132.63
2022-11-16T07:55:01.941Z,97138.53
2022-11-16T07:57:32.009Z,97148.53
2022-11-16T08:00:04.459Z,97132.75
2022-11-16T08:02:41.178Z,97138.06
2022-11-16T08:05:12.793Z,97137.09
2022-11-16T08:07:40.682Z,97140.25
2022-11-16T08:10:08.892Z,97139.75
2022-11-16T08:12:36.427Z,97151.94
2022-11-16T08:15:10.658Z,97142.84
2022-11-16T08:17:41.853Z,97156.59
2022-11-16T08:20:12.361Z,97153.75
2022-11-16T08:22:40.635Z,97156.91
2022-11-16T08:25:09.808Z,97165.44
2022-11-16T08:27:40.264Z,97157.34
2022-11-16T08:30:10.212Z,97156.84
2022-11-16T08:32:39.494Z,97167.50
2022-11-16T08:35:07.209Z,97163.28
2022-11-16T08:37:35.262Z,97173.25
2022-11-16T08:40:03.835Z,97169.22
2022-11-16T08:42:40.750Z,97165.50
2022-11-16T08:45:11.427Z,97171.22
2022-11-16T08:47:39.014Z,97155.94
2022-11-16T08:50:08.623Z,97159.97
2022-11-16T08:52:36.108Z,97163.91
2022-11-16T08:55:07.083Z,97177.59
2022-11-16T08:57:34.503Z,97169.50
2022-11-16T09:00:07.774Z,97186.38
2022-11-16T09:02:35.175Z,97180.09
2022-11-16T09:05:02.664Z,97180.41
2022-11-16T09:07:31.480Z,97193.16
2022-11-16T09:09:58.996Z,97171.63
2022-11-16T09:12:26.403Z,97185.34
2022-11-16T09:14:53.748Z,97188.59
2022-11-16T09:17:23.298Z,97187.34
2022-11-16T09:19:50.856Z,97189.97
2022-11-16T09:22:18.245Z,97199.34
2022-11-16T09:24:45.736Z,97203.06
2022-11-16T09:27:13.384Z,97197.88
2022-11-16T09:29:41.185Z,97203.97
2022-11-16T09:32:08.845Z,97205.06
2022-11-16T09:34:36.539Z,97205.69
2022-11-16T09:37:04.264Z,97208.69
2022-11-16T09:39:32.738Z,97214.88
2022-11-16T09:42:22.445Z,97218.16
2022-11-16T09:45:05.524Z,97222.69
2022-11-16T09:47:54.282Z,97224.28
2022-11-16T09:50:38.164Z,97226.41
2022-11-16T09:53:37.940Z,97234.69
2022-11-16T09:56:22.320Z,97224.34
2022-11-16T09:59:12.181Z,97240.13
2022-11-16T10:02:06.608Z,97244.16
2022-11-16T10:04:47.478Z,97242.56
2022-11-16T10:07:23.953Z,97211.19
2022-11-16T10:09:51.453Z,97243.28
2022-11-16T10:12:24.940Z,97247.00
2022-11-16T10:15:32.315Z,97254.50
2022-11-16T10:18:12.184Z,97257.44
2022-11-16T10:21:06.139Z,97259.13
2022-11-16T10:24:05.857Z,97271.09
2022-11-16T10:26:48.288Z,97272.75
2022-11-16T10:29:35.695Z,97277.28
2022-11-16T10:32:29.076Z,97268.38
2022-11-16T10:35:09.543Z,97286.09
2022-11-16T10:37:41.697Z,97264.19
2022-11-16T10:40:18.663Z,97290.94
2022-11-16T10:42:59.424Z,97283.28
2022-11-16T10:45:40.666Z,97290.72
2022-11-16T10:48:42.842Z,97297.91
2022-11-16T10:51:10.952Z,97304.28
2022-11-16T10:53:40.922Z,97312.72
2022-11-16T10:56:22.862Z,97296.63
2022-11-16T10:58:59.785Z,97301.91
2022-11-16T11:01:50.525Z,97303.97
2022-11-16T11:04:21.234Z,97314.69
2022-11-16T11:06:52.680Z,97317.94
2022-11-16T11:09:32.621Z,97318.50
2022-11-16T11:12:39.384Z,97324.41
2022-11-16T11:15:12.876Z,97329.59
2022-11-16T11:17:45.505Z,97328.63
2022-11-16T11:20:15.944Z,97334.81
2022-11-16T11:22:47.259Z,97340.19
2022-11-16T11:25:23.840Z,97337.34
2022-11-16T11:28:02.682Z,97342.44
2022-11-16T11:30:30.632Z,97349.09
2022-11-16T11:32:59.338Z,97345.94
2022-11-16T11:35:38.311Z,97356.06
2022-11-16T11:38:15.546Z,97357.03
2022-11-16T11:40:57.962Z,97370.66
2022-11-16T11:43:26.663Z,97375.53
2022-11-16T11:46:21.826Z,97368.19
2022-11-16T11:49:06.709Z,97372.97
2022-11-16T11:51:37.496Z,97354.25
2022-11-16T11:54:08.498Z,97352.38
2022-11-16T11:56:36.204Z,97374.38
2022-11-16T11:59:05.199Z,97379.91
2022-11-16T12:01:55.383Z,97387.59
2022-11-16T12:04:50.602Z,97393.72
2022-11-16T12:07:42.709Z,97392.53
2022-11-16T12:10:22.300Z,97397.31
2022-11-16T12:12:56.231Z,97387.34
2022-11-16T12:15:42.423Z,97412.47
2022-11-16T12:18:51.704Z,97413.66
2022-11-16T12:21:37.093Z,97405.38
2022-11-16T12:24:10.185Z,97423.81
2022-11-16T12:26:53.193Z,97419.06
2022-11-16T12:29:30.769Z,97415.47
2022-11-16T12:32:25.928Z,97419.94
2022-11-16T12:35:02.419Z,97420.81
2022-11-16T12:37:52.097Z,97422.94
2022-11-16T12:40:54.515Z,97432.03
2022-11-16T12:43:25.257Z,97429.16
2022-11-16T12:46:10.824Z,97433.19
2022-11-16T12:48:50.850Z,97433.72
2022-11-16T12:51:36.704Z,97443.03
2022-11-16T12:54:35.026Z,97449.38
2022-11-16T12:57:11.423Z,97450.44
2022-11-16T12:59:51.173Z,97458.19
2022-11-16T13:02:24.398Z,97454.16
2022-11-16T13:04:58.790Z,97454.25
2022-11-16T13:07:39.256Z,97454.25
2022-11-16T13:10:29.629Z,97468.22
2022-11-16T13:13:22.279Z,97459.53
2022-11-16T13:15:50.099Z,97462.72
2022-11-16T13:18:21.653Z,97469.56
2022-11-16T13:20:58.700Z,97467.03
2022-11-16T13:23:32.520Z,97480.44
2022-11-16T13:26:10.641Z,97483.06
2022-11-16T13:28:57.626Z,97489.94
2022-11-16T13:31:35.782Z,97488.59
2022-11-16T13:34:26.450Z,97503.09
2022-11-16T13:36:53.977Z,97500.69
2022-11-16T13:39:42.594Z,97500.69
2022-11-16T13:42:14.403Z,97505.22
2022-11-16T13:44:42.990Z,97494.50
2022-11-16T13:47:27.861Z,97515.00
2022-11-16T13:49:58.016Z,97509.47
2022-11-16T13:53:57.685Z,97522.13
2022-11-16T13:55:43.351Z,97522.94
2022-11-16T13:58:19.960Z,97525.34
2022-11-16T14:00:58.702Z,97524.00
2022-11-16T14:03:29.826Z,97525.34
2022-11-16T14:05:57.978Z,97509.63
2022-11-16T14:08:25.630Z,97528.75
2022-11-16T14:10:56.641Z,97535.63
2022-11-16T14:13:48.866Z,97529.56
2022-11-16T14:16:23.024Z,97537.19
2022-11-16T14:19:01.932Z,97540.13
2022-11-16T14:22:00.077Z,97536.69
2022-11-16T14:24:46.184Z,97535.13
2022-11-16T14:27:39.930Z,97542.47
2022-11-16T14:30:28.872Z,97542.75
2022-11-16T14:32:58.042Z,97540.41
2022-11-16T14:35:41.001Z,97533.94
2022-11-16T14:38:20.225Z,97544.34
2022-11-16T14:40:56.224Z,97541.75
2022-11-16T14:43:31.678Z,97549.63
2022-11-16T14:46:01.992Z,97551.25
2022-11-16T14:48:29.858Z,97557.03
2022-11-16T14:51:11.165Z,97551.25
2022-11-16T14:53:45.881Z,97556.19
2022-11-16T14:56:15.404Z,97570.47
2022-11-16T14:59:01.590Z,97569.97
2022-11-16T15:01:33.279Z,97568.13
2022-11-16T15:04:03.418Z,97567.59
2022-11-16T15:06:39.296Z,97575.53
2022-11-16T15:09:08.049Z,97579.50
2022-11-16T15:12:00.999Z,97558.34
2022-11-16T15:14:34.603Z,97593.53
2022-11-16T15:17:02.036Z,97586.13
2022-11-16T15:19:39.440Z,97582.22
2022-11-16T15:22:18.668Z,97595.63
2022-11-16T15:25:01.017Z,97601.22
2022-11-16T15:27:42.695Z,97599.34
2022-11-16T15:30:22.895Z,97608.88
2022-11-16T15:32:52.559Z,97613.91
2022-11-16T15:35:29.088Z,97619.19
2022-11-16T15:38:04.161Z,97617.06
2022-11-16T15:40:32.938Z,97617.38
2022-11-16T15:43:07.019Z,97602.13
2022-11-16T15:45:34.633Z,97624.69
2022-11-16T15:48:03.909Z,97594.03
2022-11-16T15:50:34.386Z,97622.91
2022-11-16T15:53:02.068Z,97624.81
2022-11-16T15:55:34.509Z,97610.78
2022-11-16T15:58:13.067Z,97607.50
2022-11-16T16:00:41.511Z,97630.09
2022-11-16T16:03:18.324Z,97640.09
2022-11-16T16:05:46.668Z,97625.88
2022-11-16T16:08:35.327Z,97637.16
2022-11-16T16:11:23.907Z,97637.72
2022-11-16T16:14:00.210Z,97645.38
2022-11-16T16:16:42.862Z,97651.97
2022-11-16T16:19:29.924Z,97656.97
2022-11-16T16:22:02.046Z,97651.22
2022-11-16T16:24:46.298Z,97662.81
2022-11-16T16:27:17.505Z,97650.69
2022-11-16T16:29:50.577Z,97649.94
2022-11-16T16:32:32.419Z,97665.25
2022-11-16T16:35:02.486Z,97642.97
2022-11-16T16:37:33.162Z,97661.38
2022-11-16T16:40:01.195Z,97669.31
2022-11-16T16:42:30.476Z,97670.44
2022-11-16T16:45:00.023Z,97678.63
2022-11-16T16:47:27.597Z,97679.94
2022-11-16T16:49:55.052Z,97683.09
2022-11-16T16:52:23.194Z,97692.13
2022-11-16T16:54:50.634Z,97688.94
2022-11-16T16:57:20.037Z,97691.63
2022-11-16T16:59:48.716Z,97694.28
2022-11-16T17:02:17.220Z,97695.31
2022-11-16T17:04:46.941Z,97685.06
2022-11-16T17:07:15.798Z,97702.69
2022-11-16T17:09:43.531Z,97701.09
2022-11-16T17:12:11.293Z,97706.38
2022-11-16T17:14:39.747Z,97711.66
2022-11-16T17:17:07.443Z,97718.03
2022-11-16T17:19:34.908Z,97706.19
2022-11-16T17:22:02.254Z,97722.78
2022-11-16T17:24:29.728Z,97724.91
2022-11-16T17:26:57.194Z,97703.34
2022-11-16T17:29:25.024Z,97714.38
2022-11-16T17:31:52.715Z,97736.28
2022-11-16T17:34:20.666Z,97736.03
2022-11-16T17:36:48.161Z,97739.47
2022-11-16T17:39:16.521Z,97740.78
2022-11-16T17:41:45.778Z,97741.06
2022-11-16T17:44:17.184Z,97747.38
2022-11-16T17:46:47.692Z,97743.16
2022-11-16T17:49:27.615Z,97747.66
2022-11-16T17:51:55.150Z,97759.25
2022-11-16T17:54:24.911Z,97763.00
2022-11-16T17:56:52.696Z,97757.72
2022-11-16T17:59:22.730Z,97766.69
2022-11-16T18:01:52.504Z,97784.59
2022-11-16T18:04:19.841Z,97782.50
2022-11-16T18:06:47.327Z,97773.53
2022-11-16T18:09:14.814Z,97773.00
2022-11-16T18:11:42.458Z,97778.56
2022-11-16T18:14:10.811Z,97780.94
2022-11-16T18:16:41.275Z,97788.84
2022-11-16T18:19:08.763Z,97779.59
2022-11-16T18:21:41.475Z,97796.19
2022-11-16T18:24:10.321Z,97805.44
2022-11-16T18:26:38.388Z,97808.09
2022-11-16T18:29:06.972Z,97809.94
2022-11-16T18:31:34.625Z,97814.66
2022-11-16T18:34:02.331Z,97814.94
2022-11-16T18:36:29.791Z,97813.91
2022-11-16T18:38:57.134Z,97818.91
2022-11-16T18:41:26.718Z,97821.81
2022-11-16T18:43:56.615Z,97823.69
2022-11-16T18:46:29.646Z,97834.47
2022-11-16T18:48:57.713Z,97832.66
2022-11-16T18:51:27.420Z,97813.16
2022-11-16T18:53:55.005Z,97829.47
2022-11-16T18:56:22.908Z,97807.94
2022-11-16T18:58:52.301Z,97836.88
2022-11-16T19:01:23.628Z,97840.03
2022-11-16T19:03:52.625Z,97841.63
2022-11-16T19:06:22.767Z,97843.78
2022-11-16T19:09:04.180Z,97854.06
2022-11-16T19:11:31.726Z,97857.75
2022-11-16T19:14:01.138Z,97853.00
2022-11-16T19:16:28.746Z,97858.81
2022-11-16T19:18:56.388Z,97861.47
2022-11-16T19:21:25.063Z,97873.06
2022-11-16T19:23:54.949Z,97871.47
2022-11-16T19:26:25.537Z,97876.75
2022-11-16T19:28:53.968Z,97871.47
2022-11-16T19:31:27.099Z,97885.47
2022-11-16T19:34:10.982Z,97871.53
2022-11-16T19:36:39.979Z,97885.75
2022-11-16T19:39:07.640Z,97883.13
2022-11-16T19:41:37.741Z,97884.69
2022-11-16T19:44:08.369Z,97884.97
2022-11-16T19:46:36.654Z,97892.59
2022-11-16T19:49:04.204Z,97886.56
2022-11-16T19:51:34.326Z,97902.38
2022-11-16T19:54:02.907Z,97903.94
2022-11-16T19:56:30.511Z,97915.03
2022-11-16T19:58:58.080Z,97918.72
2022-11-16T20:01:29.244Z,97915.81
2022-11-16T20:04:01.164Z,97926.38
2022-11-16T20:06:31.377Z,97936.13
2022-11-16T20:09:02.409Z,97930.84
2022-11-16T20:11:34.467Z,97929.00
2022-11-16T20:14:05.536Z,97929.78
2022-11-16T20:16:39.076Z,97929.78
2022-11-16T20:19:07.782Z,97933.47
2022-11-16T20:21:38.138Z,97948.00
2022-11-16T20:24:07.214Z,97949.59
2022-11-16T20:26:40.865Z,97953.00
2022-11-16T20:29:18.575Z,97949.59
2022-11-16T20:32:32.523Z,97953.00
2022-11-16T20:35:09.545Z,97932.19
2022-11-16T20:37:47.538Z,97945.34
2022-11-16T20:40:15.293Z,97964.09
2022-11-16T20:42:42.674Z,97967.50
2022-11-16T20:45:10.746Z,97967.47
2022-11-16T20:47:38.152Z,97965.94
2022-11-16T20:50:05.993Z,97963.56
2022-11-16T20:52:33.705Z,97970.41
2022-11-16T20:55:02.509Z,97973.56
2022-11-16T20:57:30.768Z,97973.84
2022-11-16T20:59:58.196Z,97976.22
2022-11-16T21:02:25.601Z,97976.75
2022-11-16T21:04:57.519Z,97971.19
2022-11-16T21:07:27.778Z,97994.97
2022-11-16T21:10:13.552Z,97986.75
2022-11-16T21:12:59.267Z,98001.81
2022-11-16T21:15:26.912Z,97991.00
2022-11-16T21:17:54.346Z,98000.78
2022-11-16T21:20:27.526Z,97999.72
2022-11-16T21:22:55.777Z,98005.25
2022-11-16T21:25:23.187Z,98004.22
2022-11-16T21:27:50.903Z,98014.22
2022-11-16T21:30:18.362Z,98016.09
2022-11-16T21:32:46.080Z,98026.38
2022-11-16T21:35:13.649Z,98024.25
2022-11-16T21:37:41.433Z,98030.56
2022-11-16T21:40:09.762Z,98032.69
2022-11-16T21:42:37.130Z,98036.66
2022-11-16T21:45:05.109Z,98042.47
2022-11-16T21:47:32.693Z,98037.69
2022-11-16T21:50:29.958Z,98045.88
2022-11-16T21:52:47.392Z,98045.34
2022-11-16T21:55:15.023Z,98051.44
2022-11-16T21:57:42.368Z,98057.50
2022-11-16T22:00:10.469Z,98059.34
2022-11-16T22:02:40.631Z,98064.63
2022-11-16T22:05:27.509Z,98070.69
2022-11-16T22:07:55.045Z,98073.34
2022-11-16T22:10:22.835Z,98078.63
2022-11-16T22:12:50.340Z,98079.94
2022-11-16T22:15:18.003Z,98075.44
2022-11-16T22:17:45.742Z,98077.56
2022-11-16T22:20:13.306Z,98080.72
2022-11-16T22:22:40.755Z,98093.66
2022-11-16T22:25:09.861Z,98088.88
2022-11-16T22:27:52.410Z,98086.53
2022-11-16T22:30:25.212Z,98086.81
2022-11-16T22:32:55.092Z,98096.28
2022-11-16T22:35:22.465Z,98101.28
2022-11-16T22:37:50.249Z,98096.56
2022-11-16T22:40:18.096Z,98109.22
2022-11-16T22:43:21.485Z,98107.38
2022-11-16T22:49:35.123Z,98102.88
2022-11-16T22:59:46.838Z,98125.31
2022-11-16T23:02:14.144Z,98138.75
2022-11-16T23:04:41.702Z,98145.63
2022-11-16T23:07:09.170Z,98140.09
2022-11-16T23:09:36.658Z,98141.16
2022-11-16T23:12:33.520Z,98146.13
2022-11-16T23:15:19.692Z,98153.53
2022-11-16T23:17:47.170Z,98161.97
2022-11-16T23:20:32.847Z,98166.97
2022-11-16T23:23:18.792Z,98164.59
2022-11-16T23:26:04.681Z,98166.19
2022-11-16T23:28:32.162Z,98170.66
2022-11-16T23:30:59.596Z,98168.28
2022-11-16T23:33:44.148Z,98168.28
2022-11-16T23:36:13.042Z,98173.03
2022-11-16T23:38:40.661Z,98180.94
2022-11-16T23:41:26.775Z,98177.50
2022-11-16T23:43:59.973Z,98179.59
2022-11-16T23:46:32.424Z,98185.69
2022-11-16T23:49:01.029Z,98186.44
2022-11-16T23:51:28.493Z,98196.22
2022-11-16T23:53:56.157Z,98202.78
2022-11-16T23:56:24.044Z,98207.81
2022-11-16T23:58:55.590Z,98205.13
